Loma, CO (81524)

4:19 AM MDT on October 25, 2014 (GMT -0600)
Comstock West | Change Station
CLOSE
Current Station
Personal Weather Station
Location: Fruita, CO
Elevation: 4507 ft
Nearby Weather Stations

Elev 4507 ft 39.17 °N, 108.74 °W | Updated 4 minutes ago

Clear
Clear
37.0 °F
Feels Like 37 °F
N
0.0
Wind Variable Wind from North
Gusts 0.0 mph

Today
High -- | Low -- °F
--% Chance of Precip.
Yesterday
High -- | Low -- °F
Precip. -- in
7:35 AM 6:22 PM
New Moon, 2% visible
Pressure 30.12 in
Visibility 10.0 miles
Clouds Clear
Windchill 37 °F
Dew Point 32 °F
Humidity 83%
Rainfall 0.00 in
Snow Depth Not available.
UV 0 out of 12
Pollen 1.80 out of 12
Air Quality Not available.
Flu Activity Sporadic
METAR KGJT 250953Z AUTO 08004KT 10SM CLR 08/00 A3025 RMK AO2 SLP199 T00780000

More Conditions Fewer Conditions

Pressure 30.12 in
Visibility 10.0 miles
Clouds Clear
Windchill 37 °F
Dew Point 32 °F
Humidity 83%
Rainfall 0.00 in
Snow Depth Not available.
UV 0 out of 12
Pollen 1.80 out of 12
Air Quality Not available.
Flu Activity Sporadic
METAR KGJT 250953Z AUTO 08004KT 10SM CLR 08/00 A3025 RMK AO2 SLP199 T00780000

More Conditions Fewer Conditions

10-Day Weather Forecast

Almanac

Astronomy

Oct. 25, 2014 Rise Set
Actual Time 7:35 AM MDT 6:22 PM MDT
Civil Twilight 7:08 AM MDT 6:49 PM MDT
Nautical Twilight 6:36 AM MDT 7:21 PM MDT
Astronomical Twilight 6:05 AM MDT 7:52 PM MDT
Moon 9:16 AM MDT 7:48 PM MDT
Length of Visible Light 11h 41m
Length of Day
10h 47m
Tomorrow will be 2m 21s shorter.
New Moon, 2% of the Moon is Illuminated
Today
New Moon
Oct 30
First Quarter
Nov 6
Full
Nov 14
Last Quarter
Nov 22
New

Today's Extremes

State Highs State Lows

Community

WunderPhotos

Upload Photos

1,764,796 photos uploaded!

Nearby

Snow Depth

Station Depth Elevation
Park Reservoir 1 in 9960 ft
Columbine Pass 1 in 9400 ft
Overland Reservoir 0 in 9880 ft
Burro Mountain 0 in 9400 ft
McClure Pass 1 in 9500 ft

Earthquake Activity

City Distance Mag. Time & Date
No recent earthquake activity has been reported nearby.
Minimum magnitude displayed is 2.5.

Coastal Water Temperatures

Place Temperature
No Stations Reporting

Nearby Weather Stations